createdAt,value
2022-08-22T00:02:48.773Z,99910.28
2022-08-22T00:02:58.681Z,99928.81
2022-08-22T00:03:42.708Z,99922.69
2022-08-22T00:08:54.104Z,99925.88
2022-08-22T00:14:36.509Z,99922.00
2022-08-22T00:20:07.727Z,99917.97
2022-08-22T00:25:33.769Z,99918.34
2022-08-22T00:30:47.839Z,99919.13
2022-08-22T00:35:54.602Z,99926.34
2022-08-22T00:41:10.457Z,99931.63
2022-08-22T00:46:39.617Z,99927.72
2022-08-22T00:52:16.334Z,99933.63
2022-08-22T00:57:54.465Z,99940.66
2022-08-22T01:03:27.112Z,99946.72
2022-08-22T01:08:53.244Z,99936.00
2022-08-22T01:14:34.645Z,99936.28
2022-08-22T01:19:55.495Z,99950.16
2022-08-22T01:25:21.444Z,99944.50
2022-08-22T01:30:34.880Z,99944.03
2022-08-22T01:35:55.268Z,99947.72
2022-08-22T01:41:40.600Z,99941.44
2022-08-22T01:46:58.466Z,99954.63
2022-08-22T01:52:19.735Z,99950.28
2022-08-22T01:57:24.143Z,99947.44
2022-08-22T02:03:08.005Z,99942.16
2022-08-22T02:08:44.853Z,99941.38
2022-08-22T02:14:14.986Z,99950.88
2022-08-22T02:19:16.623Z,99954.38
2022-08-22T02:24:27.655Z,99955.44
2022-08-22T02:29:58.866Z,99956.28
2022-08-22T02:35:06.689Z,99958.94
2022-08-22T02:40:17.495Z,99960.38
2022-08-22T02:45:45.889Z,99965.88
2022-08-22T02:51:01.494Z,99961.44
2022-08-22T02:56:14.880Z,99956.50
2022-08-22T03:01:29.137Z,99960.94
2022-08-22T03:06:42.035Z,99966.56
2022-08-22T03:11:49.491Z,99961.22
2022-08-22T03:17:13.742Z,99966.59
2022-08-22T03:22:58.401Z,99958.94
2022-08-22T03:28:06.677Z,99956.72
2022-08-22T03:33:22.786Z,99942.53
2022-08-22T03:38:33.766Z,99949.63
2022-08-22T03:44:00.400Z,99950.88
2022-08-22T03:49:17.640Z,99942.78
2022-08-22T03:54:44.097Z,99951.66
2022-08-22T04:00:30.111Z,99942.03
2022-08-22T04:05:58.198Z,99942.16
2022-08-22T04:11:17.281Z,99945.66
2022-08-22T04:16:36.981Z,99948.28
2022-08-22T04:21:50.654Z,99950.94
2022-08-22T04:27:02.293Z,99955.44
2022-08-22T04:32:17.358Z,99957.06
2022-08-22T04:37:25.142Z,99961.06
2022-08-22T04:42:36.393Z,99964.38
2022-08-22T04:47:54.001Z,99962.72
2022-08-22T04:52:59.057Z,99958.03
2022-08-22T04:58:11.006Z,99964.78
2022-08-22T05:03:16.635Z,99967.84
2022-08-22T05:08:25.191Z,99965.84
2022-08-22T05:13:34.245Z,99973.50
2022-08-22T05:18:43.126Z,99979.63
2022-08-22T05:23:54.081Z,99984.16
2022-08-22T05:29:02.870Z,99988.19
2022-08-22T05:34:12.022Z,99994.13
2022-08-22T05:39:19.028Z,99995.84
2022-08-22T05:44:27.425Z,100006.69
2022-08-22T05:49:47.435Z,100007.53
2022-08-22T05:55:05.100Z,100000.16
2022-08-22T06:00:14.665Z,100013.06
2022-08-22T06:05:25.776Z,100010.19
2022-08-22T06:10:51.281Z,100001.16
2022-08-22T06:16:11.801Z,100008.09
2022-08-22T06:21:22.371Z,100016.56
2022-08-22T06:26:31.638Z,100018.38
2022-08-22T06:31:37.943Z,100018.81
2022-08-22T06:36:43.618Z,100016.22
2022-08-22T06:41:48.807Z,100013.50
2022-08-22T06:46:54.534Z,100019.09
2022-08-22T06:52:07.706Z,100021.25
2022-08-22T06:57:26.679Z,100015.41
2022-08-22T07:02:36.825Z,100020.66
2022-08-22T07:07:38.472Z,100019.50
2022-08-22T07:12:45.449Z,100024.06
2022-08-22T07:17:52.427Z,100020.00
2022-08-22T07:23:01.116Z,100028.50
2022-08-22T07:28:51.259Z,100030.59
2022-08-22T07:34:14.576Z,100026.59
2022-08-22T07:39:37.157Z,100029.75
2022-08-22T07:44:54.259Z,100027.69
2022-08-22T07:50:04.582Z,100031.16
2022-08-22T07:55:20.573Z,100026.41
2022-08-22T08:00:23.946Z,100034.19
2022-08-22T08:05:30.505Z,100026.28
2022-08-22T08:10:35.446Z,100025.97
2022-08-22T08:15:39.762Z,100030.75
2022-08-22T08:20:41.903Z,100030.31
2022-08-22T08:25:57.553Z,100028.75
2022-08-22T08:31:07.750Z,100025.81
2022-08-22T08:36:26.348Z,100026.13
2022-08-22T08:41:49.868Z,100026.28
2022-08-22T08:47:23.721Z,100017.50
2022-08-22T08:52:37.292Z,100018.56
2022-08-22T08:57:57.094Z,100017.53
2022-08-22T09:03:15.618Z,100014.69
2022-08-22T09:08:42.594Z,100012.59
2022-08-22T09:13:50.126Z,100019.75
2022-08-22T09:19:29.375Z,100014.94
2022-08-22T09:24:59.802Z,100020.88
2022-08-22T09:30:05.488Z,100004.81
2022-08-22T09:35:18.954Z,100022.59
2022-08-22T09:40:37.284Z,100020.94
2022-08-22T09:46:02.102Z,100024.88
2022-08-22T09:51:31.244Z,100020.88
2022-08-22T09:56:38.533Z,100019.81
2022-08-22T10:01:57.904Z,100019.19
2022-08-22T10:07:26.875Z,100021.84
2022-08-22T10:12:44.852Z,100026.34
2022-08-22T10:18:10.479Z,100032.91
2022-08-22T10:23:24.148Z,100028.03
2022-08-22T10:28:44.915Z,100028.44
2022-08-22T10:34:11.320Z,100038.41
2022-08-22T10:39:22.558Z,100043.31
2022-08-22T10:44:52.306Z,100028.28
2022-08-22T10:50:03.031Z,100034.41
2022-08-22T10:55:26.676Z,100033.53
2022-08-22T11:00:54.945Z,100034.69
2022-08-22T11:06:03.594Z,100034.13
2022-08-22T11:11:11.071Z,100032.16
2022-08-22T11:16:17.178Z,100039.03
2022-08-22T11:21:37.488Z,100035.63
2022-08-22T11:26:59.042Z,100038.22
2022-08-22T11:32:23.087Z,100041.50
2022-08-22T11:37:43.389Z,100039.31
2022-08-22T11:43:11.950Z,100047.31
2022-08-22T11:48:25.843Z,100039.25
2022-08-22T11:53:42.670Z,100040.81
2022-08-22T11:59:04.576Z,100039.59
2022-08-22T12:04:20.827Z,100042.66
2022-08-22T12:09:41.418Z,100032.50
2022-08-22T12:15:13.043Z,100032.97
2022-08-22T12:20:23.449Z,100029.56
2022-08-22T12:25:44.838Z,100033.69
2022-08-22T12:31:02.650Z,100020.94
2022-08-22T12:36:23.261Z,100025.03
2022-08-22T12:42:04.258Z,100016.66
2022-08-22T12:47:17.826Z,100009.44
2022-08-22T12:52:57.060Z,100010.19
2022-08-22T12:58:24.059Z,99998.75
2022-08-22T13:03:42.893Z,100003.28
2022-08-22T13:08:46.141Z,100001.56
2022-08-22T13:14:00.535Z,99992.31
2022-08-22T13:19:08.058Z,99994.53
2022-08-22T13:24:39.182Z,100001.56
2022-08-22T13:29:59.312Z,99997.56
2022-08-22T13:35:01.865Z,100003.16
2022-08-22T13:40:10.113Z,100003.47
2022-08-22T13:45:21.714Z,100001.56
2022-08-22T13:50:28.815Z,99996.81
2022-08-22T13:55:51.367Z,99999.25
2022-08-22T14:01:14.518Z,99997.97
2022-08-22T14:06:38.131Z,99995.13
2022-08-22T14:11:48.931Z,99991.09
2022-08-22T14:16:56.730Z,99980.25
2022-08-22T14:22:00.573Z,99984.22
2022-08-22T14:27:12.367Z,99980.13
2022-08-22T14:32:19.281Z,99981.19
2022-08-22T14:37:33.003Z,99980.88
2022-08-22T14:42:52.213Z,99977.94
2022-08-22T14:48:29.547Z,99977.22
2022-08-22T14:53:31.868Z,99982.81
2022-08-22T14:59:05.878Z,99987.91
2022-08-22T15:04:17.709Z,99981.59
2022-08-22T15:09:27.100Z,99985.47
2022-08-22T15:14:38.014Z,99981.56
2022-08-22T15:19:43.127Z,99984.91
2022-08-22T15:24:56.309Z,99983.94
2022-08-22T15:30:21.213Z,99983.78
2022-08-22T15:35:32.090Z,99982.94
2022-08-22T15:40:43.046Z,99983.38
2022-08-22T15:45:50.446Z,99979.78
2022-08-22T15:50:58.407Z,99981.41
2022-08-22T15:56:05.054Z,99970.97
2022-08-22T16:01:19.990Z,99980.25
2022-08-22T16:06:53.781Z,99973.63
2022-08-22T16:11:57.627Z,99974.34
2022-08-22T16:17:18.051Z,99971.41
2022-08-22T16:22:19.820Z,99969.41
2022-08-22T16:27:26.103Z,99974.66
2022-08-22T16:32:28.309Z,99971.31
2022-08-22T16:37:49.919Z,99989.56
2022-08-22T16:43:11.892Z,99993.88
2022-08-22T16:48:33.487Z,99997.28
2022-08-22T16:53:37.789Z,99994.94
2022-08-22T16:59:06.052Z,100004.56
2022-08-22T17:04:54.005Z,100005.72
2022-08-22T17:10:13.636Z,100006.41
2022-08-22T17:15:17.932Z,100003.75
2022-08-22T17:20:37.997Z,100012.59
2022-08-22T17:25:48.368Z,100011.34
2022-08-22T17:31:05.343Z,100020.19
2022-08-22T17:36:26.856Z,100027.88
2022-08-22T17:41:49.529Z,100018.78
2022-08-22T17:46:53.547Z,100026.72
2022-08-22T17:52:05.361Z,100022.22
2022-08-22T17:57:26.118Z,100028.09
2022-08-22T18:02:40.779Z,100029.91
2022-08-22T18:07:45.223Z,100033.06
2022-08-22T18:13:17.040Z,100034.03
2022-08-22T18:18:31.419Z,100035.97
2022-08-22T18:23:42.488Z,100042.03
2022-08-22T18:28:53.728Z,100040.13
2022-08-22T18:34:07.348Z,100043.19
2022-08-22T18:39:22.056Z,100047.09
2022-08-22T18:44:33.164Z,100045.84
2022-08-22T18:49:34.734Z,100044.41
2022-08-22T18:54:44.784Z,100054.84
2022-08-22T18:59:55.557Z,100045.91
2022-08-22T19:05:19.857Z,100048.25
2022-08-22T19:10:37.475Z,100053.50
2022-08-22T19:15:47.979Z,100050.44
2022-08-22T19:21:34.211Z,100054.56
2022-08-22T19:26:39.701Z,100050.56
2022-08-22T19:31:52.687Z,100052.06
2022-08-22T19:37:32.049Z,100046.94
2022-08-22T19:42:37.139Z,100057.53
2022-08-22T19:47:42.804Z,100054.09
2022-08-22T19:53:00.014Z,100063.06
2022-08-22T19:58:32.938Z,100068.25
2022-08-22T20:03:48.569Z,100066.59
2022-08-22T20:09:25.698Z,100062.28
2022-08-22T20:14:33.707Z,100067.88
2022-08-22T20:19:42.491Z,100061.13
2022-08-22T20:24:53.179Z,100055.50
2022-08-22T20:30:07.618Z,100055.25
2022-08-22T20:35:16.986Z,100049.00
2022-08-22T20:40:57.346Z,100048.16
2022-08-22T20:46:08.353Z,100042.66
2022-08-22T20:51:17.781Z,100045.22
2022-08-22T20:56:37.347Z,100043.13
2022-08-22T21:01:39.270Z,100035.31
2022-08-22T21:06:40.994Z,100037.19
2022-08-22T21:11:50.655Z,100043.19
2022-08-22T21:16:53.661Z,100035.38
2022-08-22T21:22:15.218Z,100043.25
2022-08-22T21:27:27.950Z,100043.84
2022-08-22T21:32:37.542Z,100050.66
2022-08-22T21:37:45.819Z,100039.13
2022-08-22T21:43:05.570Z,100043.63
2022-08-22T21:48:45.688Z,100042.38
2022-08-22T21:53:47.640Z,100040.91
2022-08-22T21:59:21.296Z,100044.72
2022-08-22T22:04:26.754Z,100043.03
2022-08-22T22:09:29.930Z,100031.09
2022-08-22T22:14:31.609Z,100036.56
2022-08-22T22:19:34.538Z,100039.91
2022-08-22T22:24:36.293Z,100043.69
2022-08-22T22:29:37.967Z,100042.03
2022-08-22T22:34:39.554Z,100033.66
2022-08-22T22:39:42.585Z,100032.69
2022-08-22T22:44:47.505Z,100035.53
2022-08-22T22:49:49.518Z,100039.44
2022-08-22T22:54:52.389Z,100030.22
2022-08-22T22:59:54.102Z,100021.41
2022-08-22T23:04:56.980Z,100026.19
2022-08-22T23:09:58.772Z,100024.94
2022-08-22T23:15:04.823Z,100023.94
2022-08-22T23:20:07.411Z,100019.06
2022-08-22T23:25:09.495Z,100018.22
2022-08-22T23:30:11.925Z,100011.31
2022-08-22T23:35:13.639Z,100013.97
2022-08-22T23:40:15.305Z,100017.38
2022-08-22T23:45:17.127Z,100012.06
2022-08-22T23:50:18.777Z,100020.03
2022-08-22T23:55:20.683Z,100017.72
